Time;durP1;ratioP1;P1;durP2;ratioP2;P2;SDS_P1;SDS_P2;PMS_P1;PMS_P2;Temp;Humidity;BMP_temperature;BMP_pressure;BME280_temperature;BME280_humidity;BME280_pressure;Samples;Min_cycle;Max_cycle;Signal;HPM_P1;HPM_P2
2022/08/24 00:01:58;;;;;;;5.57;5.07;;;26.20;50.40;;;;;;5035758;28;20434;-74
2022/08/24 00:04:24;;;;;;;7.97;4.90;;;26.10;50.40;;;;;;5037886;28;20435;-73
2022/08/24 00:06:51;;;;;;;6.73;5.60;;;26.10;50.70;;;;;;5039080;28;20265;-74
2022/08/24 00:09:16;;;;;;;4.93;4.43;;;26.10;50.60;;;;;;5033847;28;20192;-74
2022/08/24 00:11:42;;;;;;;5.07;4.57;;;26.10;50.50;;;;;;5032889;28;20578;-73
2022/08/24 00:14:08;;;;;;;5.30;4.80;;;26.00;50.80;;;;;;5028703;28;20271;-74
2022/08/24 00:16:34;;;;;;;6.80;4.70;;;25.90;50.60;;;;;;5029243;28;20204;-73
2022/08/24 00:19:00;;;;;;;4.90;4.40;;;25.90;50.80;;;;;;5034408;28;20234;-76
2022/08/24 00:21:26;;;;;;;4.67;4.27;;;25.90;50.80;;;;;;5035366;28;21112;-75
2022/08/24 00:23:52;;;;;;;5.93;5.03;;;25.90;50.90;;;;;;5034571;28;20255;-74
2022/08/24 00:26:18;;;;;;;5.40;4.50;;;25.90;51.10;;;;;;5032760;28;20584;-74
2022/08/24 00:28:43;;;;;;;4.60;4.20;;;25.90;50.90;;;;;;5033164;28;20929;-73
2022/08/24 00:31:10;;;;;;;5.33;4.83;;;25.90;51.00;;;;;;5030628;28;20179;-74
2022/08/24 00:33:37;;;;;;;4.83;4.37;;;25.80;51.00;;;;;;5031885;28;20224;-73
2022/08/24 00:36:04;;;;;;;6.07;4.50;;;25.80;51.10;;;;;;5033146;28;20458;-75
2022/08/24 00:38:30;;;;;;;7.00;4.60;;;25.70;51.30;;;;;;5031236;28;20481;-77
2022/08/24 00:40:56;;;;;;;5.60;4.27;;;25.70;51.30;;;;;;5036251;28;20438;-73
2022/08/24 00:43:25;;;;;;;6.17;4.80;;;25.60;51.80;;;;;;5038094;28;20431;-73
2022/08/24 00:46:04;;;;;;;5.00;4.50;;;25.60;51.70;;;;;;5034253;28;20199;-73
2022/08/24 00:48:33;;;;;;;11.00;4.70;;;25.60;51.70;;;;;;5037353;28;20531;-74
2022/08/24 00:51:03;;;;;;;5.40;4.90;;;25.50;51.70;;;;;;5032393;28;20438;-74
2022/08/24 00:53:52;;;;;;;5.00;4.50;;;25.50;52.00;;;;;;5032863;28;20839;-75
2022/08/24 00:56:26;;;;;;;6.63;5.10;;;25.50;52.00;;;;;;5035585;28;21010;-75
2022/08/24 00:58:59;;;;;;;7.77;5.10;;;25.50;51.90;;;;;;5033825;28;20442;-73
2022/08/24 01:01:27;;;;;;;4.93;4.43;;;25.40;52.00;;;;;;5033508;28;20434;-73
2022/08/24 01:03:53;;;;;;;5.70;5.20;;;25.40;52.30;;;;;;5036450;28;20480;-73
2022/08/24 01:06:19;;;;;;;5.33;4.83;;;25.40;52.30;;;;;;5028621;28;20553;-75
2022/08/24 01:08:45;;;;;;;5.83;5.10;;;25.30;52.50;;;;;;5034460;28;20526;-76
2022/08/24 01:11:16;;;;;;;6.90;5.00;;;25.30;52.60;;;;;;5031496;28;20295;-76
2022/08/24 01:13:45;;;;;;;5.80;5.20;;;25.20;52.50;;;;;;5034476;28;20222;-76
2022/08/24 01:16:13;;;;;;;5.33;4.80;;;25.20;52.60;;;;;;5030239;28;20474;-74
2022/08/24 01:18:48;;;;;;;7.00;5.53;;;25.20;52.80;;;;;;5036038;28;20430;-74
2022/08/24 01:21:20;;;;;;;5.10;4.60;;;25.20;53.00;;;;;;5032778;28;20428;-74
2022/08/24 01:23:47;;;;;;;5.83;5.33;;;25.10;53.00;;;;;;5030256;28;22155;-75
2022/08/24 01:26:27;;;;;;;4.77;4.43;;;25.10;53.10;;;;;;5029138;28;20463;-75
2022/08/24 01:28:56;;;;;;;5.07;4.60;;;25.10;53.20;;;;;;5031250;28;20484;-75
2022/08/24 01:31:23;;;;;;;5.40;4.90;;;25.00;53.40;;;;;;5028750;28;20446;-75
2022/08/24 01:33:50;;;;;;;5.97;4.70;;;25.00;53.30;;;;;;5031226;28;20515;-74
2022/08/24 01:36:32;;;;;;;6.23;5.17;;;25.00;53.20;;;;;;5034295;28;20545;-73
2022/08/24 01:39:09;;;;;;;7.60;4.47;;;25.00;53.30;;;;;;5027377;28;20447;-75
2022/08/24 01:41:36;;;;;;;5.40;4.90;;;25.10;52.90;;;;;;5032908;28;20446;-74
2022/08/24 01:44:01;;;;;;;4.97;4.47;;;25.00;53.30;;;;;;5033761;28;20531;-74
2022/08/24 01:46:27;;;;;;;6.30;4.90;;;24.90;53.80;;;;;;5032368;28;20478;-75
2022/08/24 01:48:54;;;;;;;8.10;5.50;;;24.60;54.40;;;;;;5030303;28;20192;-75
2022/08/24 01:51:20;;;;;;;5.53;4.97;;;24.60;54.70;;;;;;5036668;28;20615;-75
2022/08/24 01:53:46;;;;;;;5.63;5.13;;;24.50;55.00;;;;;;5035347;28;20461;-76
2022/08/24 01:56:11;;;;;;;5.97;5.33;;;24.50;55.60;;;;;;5029905;28;20238;-76
2022/08/24 01:58:44;;;;;;;6.53;6.03;;;24.50;55.80;;;;;;5033256;28;20230;-76
2022/08/24 02:01:10;;;;;;;5.53;5.07;;;24.40;55.90;;;;;;5032437;28;20554;-74
2022/08/24 02:03:35;;;;;;;7.27;4.77;;;24.40;56.20;;;;;;5036102;28;20443;-74
2022/08/24 02:06:02;;;;;;;8.87;5.47;;;24.20;56.60;;;;;;5031196;28;20212;-73
2022/08/24 02:08:28;;;;;;;9.60;5.30;;;24.20;56.80;;;;;;5035045;28;20195;-76
2022/08/24 02:10:54;;;;;;;5.30;4.80;;;24.10;57.40;;;;;;5029404;28;20504;-75
2022/08/24 02:13:19;;;;;;;6.00;5.27;;;24.00;57.70;;;;;;5029402;28;20215;-72
2022/08/24 02:15:45;;;;;;;7.30;5.10;;;24.00;57.80;;;;;;5029964;28;20197;-72
2022/08/24 02:18:10;;;;;;;5.60;5.10;;;23.90;57.90;;;;;;5033451;28;20183;-73
2022/08/24 02:20:36;;;;;;;8.90;5.43;;;23.90;57.90;;;;;;5033148;28;20206;-73
2022/08/24 02:23:03;;;;;;;5.27;4.87;;;23.90;57.90;;;;;;5033116;28;20183;-73
2022/08/24 02:25:29;;;;;;;5.77;5.20;;;23.90;57.80;;;;;;5027346;28;20940;-75
2022/08/24 02:27:59;;;;;;;5.70;5.20;;;23.80;58.10;;;;;;5029102;28;20532;-74
2022/08/24 02:30:26;;;;;;;6.53;5.93;;;23.70;58.50;;;;;;5032162;28;20442;-73
2022/08/24 02:32:51;;;;;;;8.30;5.40;;;23.70;59.30;;;;;;5030088;28;20463;-74
2022/08/24 02:35:17;;;;;;;7.20;6.47;;;23.60;59.90;;;;;;5031540;28;20453;-72
2022/08/24 02:37:43;;;;;;;6.03;5.60;;;23.50;61.10;;;;;;5027099;28;20185;-75
2022/08/24 02:40:09;;;;;;;8.23;6.13;;;23.50;62.40;;;;;;5032726;28;20439;-73
2022/08/24 02:42:36;;;;;;;6.77;5.90;;;23.30;63.70;;;;;;5034220;28;20186;-73
2022/08/24 02:45:02;;;;;;;7.00;6.30;;;23.40;63.80;;;;;;5031836;28;20450;-72
2022/08/24 02:47:28;;;;;;;7.00;6.20;;;23.40;64.20;;;;;;5031959;28;20559;-73
2022/08/24 02:49:53;;;;;;;7.47;6.33;;;23.40;65.10;;;;;;5030981;28;21015;-74
2022/08/24 02:52:19;;;;;;;7.37;5.53;;;23.40;64.80;;;;;;5030694;28;20184;-73
2022/08/24 02:54:45;;;;;;;8.83;7.40;;;23.40;64.50;;;;;;5031363;28;20541;-76
2022/08/24 02:57:11;;;;;;;7.00;6.00;;;23.50;64.50;;;;;;5029057;28;20507;-75
2022/08/24 02:59:36;;;;;;;6.77;6.07;;;23.40;64.60;;;;;;5030563;28;20187;-74
2022/08/24 03:02:02;;;;;;;7.20;6.17;;;23.50;64.50;;;;;;5034315;28;20180;-74
2022/08/24 03:04:28;;;;;;;6.53;5.83;;;23.50;64.10;;;;;;5033803;28;20679;-74
2022/08/24 03:06:57;;;;;;;7.13;5.87;;;23.50;64.90;;;;;;5030983;28;20482;-73
2022/08/24 03:09:22;;;;;;;5.90;5.40;;;23.50;63.70;;;;;;5028581;28;20191;-75
2022/08/24 03:11:48;;;;;;;6.87;6.27;;;23.50;63.70;;;;;;5036356;28;20445;-76
2022/08/24 03:14:14;;;;;;;7.37;6.13;;;23.50;63.80;;;;;;5028475;28;20223;-76
2022/08/24 03:16:40;;;;;;;6.33;5.67;;;23.50;63.80;;;;;;5031148;28;20699;-76
2022/08/24 03:19:05;;;;;;;6.13;5.53;;;23.40;63.90;;;;;;5030254;28;20666;-75
2022/08/24 03:21:32;;;;;;;5.77;5.27;;;23.40;63.60;;;;;;5028332;28;20445;-76
2022/08/24 03:23:57;;;;;;;9.00;5.40;;;23.40;63.40;;;;;;5029225;28;20187;-76
2022/08/24 03:26:23;;;;;;;6.33;5.77;;;23.50;64.10;;;;;;5028619;28;20485;-75
2022/08/24 03:28:49;;;;;;;6.60;5.90;;;23.50;62.80;;;;;;5033003;28;20204;-74
2022/08/24 03:31:16;;;;;;;6.20;4.87;;;23.40;61.90;;;;;;5029626;28;20824;-74
2022/08/24 03:33:42;;;;;;;7.40;5.40;;;23.40;61.90;;;;;;5031219;28;20459;-73
2022/08/24 03:36:08;;;;;;;8.70;5.37;;;23.30;61.50;;;;;;5029111;28;20845;-73
2022/08/24 03:38:33;;;;;;;5.43;4.97;;;23.30;61.50;;;;;;5028516;28;20292;-73
2022/08/24 03:41:00;;;;;;;6.03;5.23;;;23.30;61.50;;;;;;5031406;28;20530;-73
2022/08/24 03:46:11;;;;;;;5.10;4.70;;;23.40;61.20;;;;;;5025555;28;20457;-74
2022/08/24 03:48:39;;;;;;;5.83;5.30;;;23.40;61.20;;;;;;5028876;28;20877;-74
2022/08/24 03:51:05;;;;;;;6.20;4.90;;;23.40;61.10;;;;;;5031780;28;20876;-73
2022/08/24 03:53:31;;;;;;;8.43;5.10;;;23.40;60.80;;;;;;5029583;28;20583;-73
2022/08/24 03:55:57;;;;;;;6.63;5.93;;;23.40;60.70;;;;;;5029843;28;20470;-73
2022/08/24 03:58:22;;;;;;;5.50;5.00;;;23.40;60.60;;;;;;5022595;28;20180;-73
2022/08/24 04:00:48;;;;;;;7.13;5.23;;;23.30;60.90;;;;;;5024591;28;20227;-72
2022/08/24 04:03:14;;;;;;;5.33;4.83;;;23.30;60.90;;;;;;5029787;28;20183;-76
2022/08/24 04:05:41;;;;;;;6.20;5.60;;;23.30;60.50;;;;;;5028774;28;20466;-75
2022/08/24 04:08:07;;;;;;;6.00;5.43;;;23.30;60.40;;;;;;5025970;28;20561;-74
2022/08/24 04:10:33;;;;;;;5.83;5.23;;;23.30;60.50;;;;;;5031675;28;20439;-74
2022/08/24 04:13:00;;;;;;;6.43;4.97;;;23.30;60.70;;;;;;5033176;28;20464;-73
2022/08/24 04:15:26;;;;;;;5.93;4.90;;;23.30;60.70;;;;;;5030009;28;20453;-73
2022/08/24 04:17:52;;;;;;;7.27;5.00;;;23.30;60.50;;;;;;5031880;28;20551;-74
2022/08/24 04:20:18;;;;;;;8.70;5.17;;;23.30;60.50;;;;;;5026294;28;20582;-74
2022/08/24 04:22:43;;;;;;;6.43;5.27;;;23.30;60.60;;;;;;5030860;28;20188;-74
2022/08/24 04:25:10;;;;;;;5.23;4.80;;;23.30;60.90;;;;;;5032387;28;20199;-74
2022/08/24 04:27:37;;;;;;;5.97;5.37;;;23.30;61.00;;;;;;5034090;28;20202;-74
2022/08/24 04:30:03;;;;;;;5.83;5.17;;;23.20;61.10;;;;;;5028384;28;20450;-72
2022/08/24 04:32:31;;;;;;;5.47;4.90;;;23.20;61.50;;;;;;5035412;28;20427;-73
2022/08/24 04:34:57;;;;;;;5.53;5.00;;;23.20;61.40;;;;;;5036079;28;20561;-73
2022/08/24 04:37:24;;;;;;;6.13;5.20;;;23.20;61.30;;;;;;5031671;28;20438;-73
2022/08/24 04:39:49;;;;;;;6.97;5.40;;;23.20;61.20;;;;;;5031103;28;20501;-74
2022/08/24 04:42:16;;;;;;;6.27;5.50;;;23.20;61.10;;;;;;5030506;28;20431;-73
2022/08/24 04:44:42;;;;;;;6.07;5.30;;;23.20;61.20;;;;;;5033188;28;20668;-75
2022/08/24 04:47:08;;;;;;;7.60;5.37;;;23.20;61.50;;;;;;5027388;28;20959;-73
2022/08/24 04:49:34;;;;;;;6.07;5.47;;;23.20;61.30;;;;;;5030336;28;20435;-73
2022/08/24 04:52:00;;;;;;;5.37;4.87;;;23.20;61.30;;;;;;5030820;28;20652;-73
2022/08/24 04:54:26;;;;;;;5.10;4.70;;;23.20;61.90;;;;;;5032072;28;20831;-73
2022/08/24 04:56:51;;;;;;;6.13;5.53;;;23.20;61.70;;;;;;5030443;28;20212;-74
2022/08/24 04:59:17;;;;;;;6.00;5.40;;;23.20;61.50;;;;;;5030316;28;20169;-73
2022/08/24 05:01:43;;;;;;;6.87;6.17;;;23.20;61.50;;;;;;5032588;28;20222;-72
2022/08/24 05:04:09;;;;;;;7.00;5.90;;;23.20;61.50;;;;;;5036034;28;20793;-75
2022/08/24 05:06:35;;;;;;;6.27;5.77;;;23.20;61.40;;;;;;5031930;28;20200;-74
2022/08/24 05:09:02;;;;;;;7.03;6.23;;;23.20;61.70;;;;;;5030423;28;20538;-73
2022/08/24 05:11:28;;;;;;;9.27;5.50;;;23.20;62.00;;;;;;5034918;28;20192;-74
2022/08/24 05:13:55;;;;;;;5.97;5.47;;;23.20;62.10;;;;;;5034340;28;20511;-74
2022/08/24 05:16:22;;;;;;;5.70;5.20;;;23.20;62.20;;;;;;5027311;28;20463;-74
2022/08/24 05:18:48;;;;;;;6.20;5.60;;;23.20;62.20;;;;;;5033686;28;20438;-74
2022/08/24 05:21:17;;;;;;;6.13;5.53;;;23.20;62.20;;;;;;5026937;28;20441;-73
2022/08/24 05:23:43;;;;;;;6.73;5.53;;;23.10;62.60;;;;;;5029361;28;20446;-74
2022/08/24 05:26:12;;;;;;;6.20;5.40;;;23.10;62.70;;;;;;5035351;28;21176;-74
2022/08/24 05:28:38;;;;;;;9.30;5.73;;;23.10;62.70;;;;;;5031130;28;20447;-75
2022/08/24 05:31:19;;;;;;;6.87;5.70;;;23.10;62.70;;;;;;5031285;28;20474;-75
2022/08/24 05:33:45;;;;;;;6.17;5.50;;;23.10;62.70;;;;;;5039673;28;20549;-74
2022/08/24 05:36:25;;;;;;;7.97;5.40;;;23.10;62.80;;;;;;5030949;28;20891;-75
2022/08/24 05:38:53;;;;;;;5.93;5.33;;;23.10;62.80;;;;;;5027849;28;20211;-75
2022/08/24 05:41:19;;;;;;;6.90;6.17;;;23.00;63.30;;;;;;5028893;28;20430;-74
2022/08/24 05:43:45;;;;;;;7.20;6.50;;;23.00;63.20;;;;;;5031395;28;20985;-73
2022/08/24 05:46:12;;;;;;;14.37;5.33;;;23.00;63.30;;;;;;5031759;28;20457;-77
2022/08/24 05:48:38;;;;;;;7.00;5.60;;;22.90;63.20;;;;;;5034337;28;20449;-76
2022/08/24 05:51:06;;;;;;;7.43;5.20;;;22.90;63.60;;;;;;5028160;28;20435;-76
2022/08/24 05:53:32;;;;;;;8.13;5.70;;;22.90;63.60;;;;;;5023930;28;20471;-75
2022/08/24 05:56:01;;;;;;;8.30;6.10;;;22.90;63.60;;;;;;5027714;28;20817;-74
2022/08/24 05:58:27;;;;;;;6.47;5.90;;;22.90;63.80;;;;;;5030586;28;20480;-76
2022/08/24 06:00:52;;;;;;;7.67;5.80;;;22.90;63.90;;;;;;5029561;28;20973;-75
2022/08/24 06:03:18;;;;;;;6.60;5.60;;;22.90;63.90;;;;;;5027722;28;20234;-74
2022/08/24 06:05:47;;;;;;;10.40;5.33;;;22.90;63.90;;;;;;5027317;28;20832;-75
2022/08/24 06:08:13;;;;;;;7.37;6.47;;;22.90;64.00;;;;;;5028586;28;20295;-73
2022/08/24 06:10:41;;;;;;;6.30;5.30;;;22.90;64.10;;;;;;5024572;28;20989;-76
2022/08/24 06:13:08;;;;;;;9.23;5.10;;;22.90;65.10;;;;;;5026128;28;20208;-73
2022/08/24 06:15:34;;;;;;;6.33;5.73;;;22.90;64.40;;;;;;5027489;28;20930;-73
2022/08/24 06:18:00;;;;;;;10.10;5.53;;;22.90;64.60;;;;;;5028995;28;20548;-76
2022/08/24 06:20:26;;;;;;;7.43;6.17;;;22.90;64.50;;;;;;5031421;28;20804;-73
2022/08/24 06:22:52;;;;;;;16.13;5.57;;;22.90;64.70;;;;;;5032254;28;20465;-73
2022/08/24 06:28:01;;;;;;;10.87;5.50;;;22.90;64.50;;;;;;5029465;28;20241;-73
2022/08/24 06:30:27;;;;;;;7.10;6.00;;;22.90;64.60;;;;;;5031184;28;20837;-74
2022/08/24 06:32:53;;;;;;;6.73;6.03;;;22.90;64.60;;;;;;5030848;28;20637;-75
2022/08/24 06:35:19;;;;;;;7.10;6.37;;;22.90;64.70;;;;;;5026266;28;20250;-75
2022/08/24 06:37:44;;;;;;;8.10;5.90;;;22.90;65.00;;;;;;5025413;28;20211;-75
2022/08/24 06:40:10;;;;;;;8.50;7.60;;;22.90;65.00;;;;;;5027768;28;20864;-76
2022/08/24 06:42:36;;;;;;;7.80;6.40;;;22.90;65.30;;;;;;5025166;28;20941;-75
2022/08/24 06:45:02;;;;;;;10.97;6.80;;;23.00;65.40;;;;;;5029864;28;20449;-74
2022/08/24 06:47:28;;;;;;;9.53;6.60;;;23.10;65.50;;;;;;5029335;28;20171;-73
2022/08/24 06:49:53;;;;;;;9.13;5.40;;;23.10;65.50;;;;;;5024763;28;20237;-74
2022/08/24 06:52:19;;;;;;;10.70;5.90;;;23.10;65.50;;;;;;5026540;28;20852;-74
2022/08/24 06:54:44;;;;;;;9.40;6.30;;;23.10;65.50;;;;;;5022882;28;20247;-75
2022/08/24 06:57:10;;;;;;;6.27;5.67;;;23.20;65.40;;;;;;5023415;28;20181;-76
2022/08/24 06:59:36;;;;;;;5.77;5.30;;;23.20;65.20;;;;;;5029975;28;20204;-75
2022/08/24 07:02:01;;;;;;;6.63;5.33;;;23.20;65.00;;;;;;5035418;28;20169;-76
2022/08/24 07:04:27;;;;;;;8.63;5.93;;;23.30;65.00;;;;;;5031390;28;20180;-74
2022/08/24 07:06:53;;;;;;;5.77;5.27;;;23.30;65.00;;;;;;5027765;28;20207;-74
2022/08/24 07:09:23;;;;;;;7.03;5.27;;;23.40;64.90;;;;;;5025883;28;20198;-72
2022/08/24 07:11:49;;;;;;;6.77;5.07;;;23.40;64.70;;;;;;5031180;28;20849;-73
2022/08/24 07:14:15;;;;;;;5.60;5.10;;;23.50;64.50;;;;;;5028350;28;20467;-75
2022/08/24 07:16:41;;;;;;;7.50;5.43;;;23.50;64.20;;;;;;5024790;28;21269;-72
2022/08/24 07:19:07;;;;;;;6.07;5.40;;;23.60;63.80;;;;;;5029594;28;20176;-75
2022/08/24 07:21:33;;;;;;;5.90;5.37;;;23.60;63.60;;;;;;5023038;28;20462;-73
2022/08/24 07:24:01;;;;;;;6.27;5.10;;;23.70;63.60;;;;;;5032821;28;20184;-72
2022/08/24 07:26:29;;;;;;;5.77;5.23;;;23.70;63.30;;;;;;5033081;28;20219;-72
2022/08/24 07:29:04;;;;;;;6.17;5.60;;;23.80;63.30;;;;;;5028708;28;20435;-72
2022/08/24 07:31:33;;;;;;;5.77;5.30;;;23.80;63.20;;;;;;5013242;28;20442;-71
2022/08/24 07:33:59;;;;;;;5.77;5.23;;;23.80;63.00;;;;;;5028943;28;20450;-71
2022/08/24 07:36:24;;;;;;;6.37;5.87;;;23.90;62.90;;;;;;5030354;28;21115;-72
2022/08/24 07:38:51;;;;;;;6.07;5.53;;;24.00;62.90;;;;;;5035627;28;20667;-71
2022/08/24 07:41:17;;;;;;;5.40;4.90;;;24.00;62.90;;;;;;5028280;28;20184;-71
2022/08/24 07:43:45;;;;;;;7.53;4.80;;;24.00;63.20;;;;;;5030219;28;20426;-71
2022/08/24 07:46:12;;;;;;;6.17;5.60;;;24.10;63.00;;;;;;5032423;28;20540;-73
2022/08/24 07:48:38;;;;;;;9.53;5.40;;;24.20;62.80;;;;;;5031143;28;20445;-70
2022/08/24 07:51:13;;;;;;;5.43;4.93;;;24.30;62.20;;;;;;5030966;28;20792;-71
2022/08/24 07:53:39;;;;;;;7.30;5.10;;;24.30;62.20;;;;;;5035410;28;20458;-74
2022/08/24 07:56:05;;;;;;;5.20;4.67;;;24.40;62.00;;;;;;5035295;28;20470;-73
2022/08/24 07:58:31;;;;;;;5.60;5.10;;;24.50;61.80;;;;;;5035902;28;20169;-73
2022/08/24 08:00:57;;;;;;;7.30;4.83;;;24.50;61.60;;;;;;5038017;28;20863;-73
2022/08/24 08:03:25;;;;;;;8.97;5.13;;;24.60;61.70;;;;;;5032230;28;20183;-70
2022/08/24 08:06:00;;;;;;;5.40;4.80;;;24.60;61.50;;;;;;5035650;28;20466;-70
2022/08/24 08:08:26;;;;;;;5.40;4.83;;;24.70;61.60;;;;;;5033900;28;20434;-75
2022/08/24 08:10:52;;;;;;;6.13;5.53;;;24.80;61.40;;;;;;5037977;28;20457;-75
2022/08/24 08:13:18;;;;;;;6.87;5.00;;;24.90;61.40;;;;;;5040242;28;20465;-75
2022/08/24 08:15:44;;;;;;;8.80;5.87;;;24.90;61.20;;;;;;5032661;28;20199;-72
2022/08/24 08:18:10;;;;;;;6.27;5.20;;;25.00;61.20;;;;;;5032374;28;20172;-71
2022/08/24 08:20:38;;;;;;;5.80;5.13;;;25.10;61.20;;;;;;5038640;28;20568;-71
2022/08/24 08:25:49;;;;;;;5.57;5.07;;;25.20;60.80;;;;;;5028255;28;20629;-70
2022/08/24 08:28:15;;;;;;;5.00;4.50;;;25.30;60.90;;;;;;5029896;28;20477;-71
2022/08/24 08:30:41;;;;;;;7.63;5.23;;;25.40;60.90;;;;;;5034824;28;20435;-70
2022/08/24 08:33:07;;;;;;;7.17;5.57;;;25.40;60.50;;;;;;5032208;28;20351;-70
2022/08/24 08:35:33;;;;;;;6.20;5.60;;;25.50;60.60;;;;;;5030937;28;20458;-71
2022/08/24 08:37:59;;;;;;;7.60;4.83;;;25.60;60.60;;;;;;5036840;28;20230;-71
2022/08/24 08:40:44;;;;;;;4.73;4.33;;;25.70;60.70;;;;;;5031735;28;20795;-69
2022/08/24 08:43:36;;;;;;;7.30;5.40;;;25.80;60.60;;;;;;5038737;28;20425;-71
2022/08/24 08:46:07;;;;;;;8.13;4.57;;;25.90;60.50;;;;;;5034475;28;20454;-70
2022/08/24 08:48:52;;;;;;;5.70;5.10;;;25.90;60.50;;;;;;5031433;28;21119;-76
2022/08/24 08:51:44;;;;;;;5.33;4.80;;;26.10;60.50;;;;;;5031469;28;20443;-75
2022/08/24 08:54:37;;;;;;;11.00;5.47;;;26.10;60.10;;;;;;5029659;28;20469;-74
2022/08/24 08:57:14;;;;;;;5.50;5.00;;;26.20;59.90;;;;;;5028438;28;20461;-70
2022/08/24 08:59:59;;;;;;;5.60;5.10;;;26.30;59.90;;;;;;5038910;28;20496;-70
2022/08/24 09:02:44;;;;;;;5.77;4.77;;;26.40;59.80;;;;;;5031594;28;20465;-70
2022/08/24 09:05:47;;;;;;;8.03;4.90;;;26.50;59.90;;;;;;5020205;28;21442;-71
2022/08/24 09:08:24;;;;;;;5.23;4.73;;;26.70;59.90;;;;;;5029709;28;20475;-69
2022/08/24 09:10:55;;;;;;;15.40;5.73;;;26.70;59.60;;;;;;5031267;28;20525;-70
2022/08/24 09:13:32;;;;;;;6.63;5.83;;;26.80;59.50;;;;;;5029910;28;20458;-70
2022/08/24 09:16:18;;;;;;;5.77;4.60;;;27.00;59.20;;;;;;5026052;28;20445;-69
2022/08/24 09:19:07;;;;;;;5.10;4.60;;;27.10;59.10;;;;;;5027057;28;20528;-70
2022/08/24 09:22:13;;;;;;;6.43;4.80;;;27.20;58.80;;;;;;5029908;28;20439;-70
2022/08/24 09:24:53;;;;;;;7.80;4.97;;;27.20;58.60;;;;;;5029902;28;20480;-71
2022/08/24 09:27:22;;;;;;;5.77;5.27;;;27.30;58.50;;;;;;5028027;28;20438;-69
2022/08/24 09:30:17;;;;;;;5.40;4.90;;;27.40;58.10;;;;;;5026953;28;21188;-71
2022/08/24 09:33:01;;;;;;;6.50;4.77;;;27.50;57.30;;;;;;5028566;28;20439;-70
2022/08/24 09:35:51;;;;;;;7.30;4.70;;;27.60;57.00;;;;;;5027826;28;20947;-69
2022/08/24 09:38:34;;;;;;;4.87;4.47;;;27.70;56.60;;;;;;5030556;28;20473;-70
2022/08/24 09:41:30;;;;;;;7.87;4.40;;;27.80;55.90;;;;;;5030405;28;20422;-72
2022/08/24 09:44:24;;;;;;;5.20;4.67;;;27.90;55.70;;;;;;5026817;28;20481;-71
2022/08/24 09:47:09;;;;;;;4.80;4.40;;;28.00;55.50;;;;;;5029579;28;20930;-71
2022/08/24 09:49:37;;;;;;;7.67;4.07;;;28.10;54.70;;;;;;5027122;28;21276;-70
2022/08/24 09:52:21;;;;;;;4.43;4.03;;;28.20;54.00;;;;;;5025742;28;21108;-71
2022/08/24 09:54:50;;;;;;;6.00;3.90;;;28.20;54.00;;;;;;5027357;28;20556;-70
2022/08/24 09:57:43;;;;;;;4.40;3.90;;;28.30;53.80;;;;;;5026160;28;20538;-70
2022/08/24 10:00:23;;;;;;;17.33;4.00;;;28.40;53.30;;;;;;5035452;28;20557;-71
2022/08/24 10:03:21;;;;;;;7.03;4.70;;;28.50;52.90;;;;;;5023922;28;20439;-71
2022/08/24 10:05:50;;;;;;;4.10;3.80;;;28.60;52.60;;;;;;5025465;28;20459;-71
2022/08/24 10:08:54;;;;;;;4.10;3.80;;;28.70;52.70;;;;;;5022813;28;20518;-71
2022/08/24 10:11:45;;;;;;;7.70;3.70;;;28.80;52.20;;;;;;5029955;28;20445;-70
2022/08/24 10:14:34;;;;;;;4.93;4.20;;;28.80;51.30;;;;;;5027502;28;20454;-74
2022/08/24 10:17:25;;;;;;;3.77;3.47;;;28.90;51.10;;;;;;5032858;28;20519;-70
2022/08/24 10:19:57;;;;;;;4.20;3.80;;;29.00;51.30;;;;;;5033835;28;20435;-72
2022/08/24 10:22:48;;;;;;;4.33;3.93;;;29.00;51.40;;;;;;5033623;28;20485;-70
2022/08/24 10:25:33;;;;;;;5.63;3.70;;;29.10;50.50;;;;;;5021943;28;20455;-70
2022/08/24 10:28:04;;;;;;;4.17;3.77;;;29.20;50.20;;;;;;5030657;28;20434;-71
2022/08/24 10:31:04;;;;;;;4.20;3.80;;;29.20;50.20;;;;;;5025063;28;20439;-70
2022/08/24 10:33:37;;;;;;;4.57;3.80;;;29.30;49.80;;;;;;5021959;28;20563;-71
2022/08/24 10:36:31;;;;;;;4.10;3.50;;;29.40;49.50;;;;;;5022193;28;20474;-70
2022/08/24 10:42:05;;;;;;;5.00;3.63;;;29.60;49.00;;;;;;5027220;28;20422;-70
2022/08/24 10:44:47;;;;;;;3.70;3.40;;;29.70;48.50;;;;;;5029646;28;20407;-71
2022/08/24 10:47:25;;;;;;;3.87;3.53;;;29.70;47.90;;;;;;5027013;28;20442;-71
2022/08/24 10:50:21;;;;;;;3.97;3.50;;;29.80;47.60;;;;;;5026889;28;20473;-71
2022/08/24 10:53:31;;;;;;;3.90;3.50;;;29.90;47.00;;;;;;5024882;28;20434;-71
2022/08/24 10:56:19;;;;;;;4.00;3.60;;;29.90;46.30;;;;;;5028971;28;20588;-70
2022/08/24 10:59:00;;;;;;;6.33;3.60;;;30.00;46.10;;;;;;5027369;28;20437;-71
2022/08/24 11:01:26;;;;;;;4.93;3.60;;;30.00;45.90;;;;;;5023221;28;20435;-70
2022/08/24 11:04:22;;;;;;;5.80;3.70;;;30.10;46.10;;;;;;5026515;28;20446;-71
2022/08/24 11:07:19;;;;;;;6.77;3.50;;;30.20;46.10;;;;;;5024807;28;20215;-71
2022/08/24 11:09:59;;;;;;;3.73;3.43;;;30.20;46.10;;;;;;5026709;28;20447;-71
2022/08/24 11:12:32;;;;;;;3.90;3.50;;;30.30;46.10;;;;;;5029450;28;21247;-71
2022/08/24 11:15:08;;;;;;;4.93;3.40;;;30.40;45.60;;;;;;5027424;28;20533;-72
2022/08/24 11:17:34;;;;;;;4.63;3.70;;;30.40;45.10;;;;;;5025150;28;21408;-71
2022/08/24 11:20:00;;;;;;;4.17;3.40;;;30.50;45.20;;;;;;5027116;28;20435;-71
2022/08/24 11:22:29;;;;;;;4.40;4.00;;;30.60;45.10;;;;;;5028051;28;20180;-71
2022/08/24 11:25:00;;;;;;;5.40;4.07;;;30.60;45.00;;;;;;5026609;28;20184;-71
2022/08/24 11:27:37;;;;;;;4.00;3.70;;;30.70;44.90;;;;;;5022693;28;20637;-70
2022/08/24 11:30:26;;;;;;;6.43;4.50;;;30.70;44.80;;;;;;5030898;28;20442;-70
2022/08/24 11:32:55;;;;;;;7.03;4.27;;;30.80;44.60;;;;;;5030913;28;20825;-69
2022/08/24 11:35:30;;;;;;;4.60;3.97;;;30.90;44.10;;;;;;5027174;28;20969;-70
2022/08/24 11:38:05;;;;;;;4.63;4.17;;;31.00;44.00;;;;;;5034328;28;20462;-69
2022/08/24 11:40:38;;;;;;;4.50;4.10;;;31.10;43.90;;;;;;5026780;28;20931;-69
2022/08/24 11:43:30;;;;;;;4.07;3.70;;;31.20;43.80;;;;;;5031654;28;20463;-74
2022/08/24 11:46:08;;;;;;;7.83;3.93;;;31.30;45.70;;;;;;5030914;28;20454;-72
2022/08/24 11:48:59;;;;;;;3.93;3.63;;;31.30;45.90;;;;;;5026092;28;20424;-72
2022/08/24 11:51:45;;;;;;;6.07;4.00;;;31.30;45.60;;;;;;5025362;28;20455;-71
2022/08/24 11:54:55;;;;;;;7.63;4.23;;;31.40;44.90;;;;;;5034558;28;20469;-71
2022/08/24 11:57:24;;;;;;;4.27;3.87;;;31.60;44.00;;;;;;5026834;28;20434;-71
2022/08/24 12:00:14;;;;;;;4.53;4.03;;;31.80;44.30;;;;;;5033097;28;20509;-71
2022/08/24 12:02:53;;;;;;;4.50;3.87;;;32.20;44.00;;;;;;5031271;28;20490;-71
2022/08/24 12:05:41;;;;;;;9.23;4.00;;;32.60;43.50;;;;;;5029599;28;20774;-71
2022/08/24 12:08:09;;;;;;;4.37;3.97;;;33.30;43.50;;;;;;5030516;28;20947;-71
2022/08/24 12:10:54;;;;;;;4.60;4.20;;;34.70;42.70;;;;;;5029305;28;20409;-71
2022/08/24 12:13:43;;;;;;;5.20;4.50;;;36.00;41.40;;;;;;5028581;28;20444;-71
2022/08/24 12:16:21;;;;;;;4.70;4.17;;;37.10;40.00;;;;;;5029489;28;20456;-70
2022/08/24 12:18:49;;;;;;;4.33;3.93;;;37.60;38.90;;;;;;5030213;28;20405;-71
2022/08/24 12:21:18;;;;;;;3.93;3.60;;;37.90;38.20;;;;;;5029391;28;20416;-71
2022/08/24 12:23:48;;;;;;;4.73;3.80;;;38.20;38.00;;;;;;5031208;28;20462;-70
2022/08/24 12:26:37;;;;;;;5.33;4.30;;;38.50;37.50;;;;;;5029400;28;20458;-71
2022/08/24 12:29:25;;;;;;;6.17;4.30;;;38.80;37.10;;;;;;5032493;28;20405;-71
2022/08/24 12:32:02;;;;;;;6.50;4.17;;;39.10;36.60;;;;;;5038422;28;20600;-71
2022/08/24 12:34:49;;;;;;;4.00;3.63;;;39.30;36.40;;;;;;5033738;28;20497;-71
2022/08/24 12:37:22;;;;;;;4.43;4.00;;;39.40;35.90;;;;;;5027797;28;20442;-70
2022/08/24 12:40:18;;;;;;;4.10;3.80;;;39.60;35.30;;;;;;5037793;28;20431;-70
2022/08/24 12:42:50;;;;;;;4.70;3.93;;;39.80;35.40;;;;;;5034473;28;20450;-71
2022/08/24 12:45:18;;;;;;;4.10;3.50;;;40.10;35.00;;;;;;5031362;28;20505;-69
2022/08/24 12:48:18;;;;;;;7.80;3.30;;;40.30;34.80;;;;;;5031714;28;20925;-69
2022/08/24 12:51:13;;;;;;;4.63;3.63;;;40.20;34.20;;;;;;5030857;28;20443;-71
2022/08/24 12:53:58;;;;;;;6.63;4.50;;;40.30;34.00;;;;;;5037909;28;20549;-71
2022/08/24 12:56:26;;;;;;;3.73;3.40;;;40.60;34.00;;;;;;5028971;28;20459;-70
2022/08/24 12:59:15;;;;;;;4.97;3.97;;;40.70;33.80;;;;;;5033711;28;20953;-71
2022/08/24 13:01:47;;;;;;;3.93;3.50;;;40.70;33.50;;;;;;5026756;28;20435;-70
2022/08/24 13:04:31;;;;;;;4.50;3.70;;;40.70;33.20;;;;;;5030218;28;20450;-70
2022/08/24 13:07:08;;;;;;;4.23;3.70;;;40.80;32.90;;;;;;5030747;28;20465;-69
2022/08/24 13:09:38;;;;;;;4.60;4.00;;;41.00;32.90;;;;;;5031437;28;21142;-70
2022/08/24 13:12:42;;;;;;;4.73;3.13;;;41.00;32.60;;;;;;5033063;28;20462;-70
2022/08/24 13:15:23;;;;;;;3.83;3.40;;;40.90;32.20;;;;;;5032643;28;20500;-70
2022/08/24 13:17:59;;;;;;;6.10;3.73;;;40.90;31.70;;;;;;5025195;28;20512;-70
2022/08/24 13:20:33;;;;;;;3.93;3.57;;;40.90;31.90;;;;;;5030469;28;20434;-70
2022/08/24 13:23:02;;;;;;;3.90;3.50;;;41.30;31.70;;;;;;5025340;28;20429;-70